createdAt,value
2019-01-09T00:01:50.894Z,51.03
2019-01-09T00:04:19.047Z,51.10
2019-01-09T00:06:47.271Z,51.00
2019-01-09T00:09:15.475Z,51.01
2019-01-09T00:11:43.624Z,51.03
2019-01-09T00:14:11.809Z,50.99
2019-01-09T00:16:39.971Z,50.98
2019-01-09T00:19:08.126Z,51.09
2019-01-09T00:21:36.371Z,51.01
2019-01-09T00:24:04.499Z,50.85
2019-01-09T00:26:32.689Z,50.96
2019-01-09T00:29:00.793Z,50.88
2019-01-09T00:31:28.949Z,50.96
2019-01-09T00:33:57.082Z,51.03
2019-01-09T00:36:25.287Z,50.91
2019-01-09T00:38:53.619Z,50.91
2019-01-09T00:41:21.751Z,50.83
2019-01-09T00:43:49.953Z,50.76
2019-01-09T00:46:18.123Z,50.77
2019-01-09T00:48:46.297Z,50.90
2019-01-09T00:51:14.468Z,50.88
2019-01-09T00:53:42.658Z,50.80
2019-01-09T00:56:10.810Z,50.90
2019-01-09T00:58:38.978Z,50.85
2019-01-09T01:01:07.153Z,51.03
2019-01-09T01:03:48.364Z,50.92
2019-01-09T01:06:41.841Z,51.01
2019-01-09T01:09:21.305Z,50.84
2019-01-09T01:12:03.782Z,50.82
2019-01-09T01:15:00.158Z,50.82
2019-01-09T01:17:46.305Z,50.77
2019-01-09T01:20:39.405Z,50.80
2019-01-09T01:23:25.286Z,50.93
2019-01-09T01:26:00.240Z,50.82
2019-01-09T01:29:05.961Z,50.70
2019-01-09T01:31:44.927Z,50.74
2019-01-09T01:34:25.811Z,50.76
2019-01-09T01:37:15.891Z,50.67
2019-01-09T01:40:09.335Z,50.61
2019-01-09T01:43:02.746Z,50.68
2019-01-09T01:45:49.793Z,50.82
2019-01-09T01:48:35.670Z,50.66
2019-01-09T01:51:08.371Z,50.81
2019-01-09T01:54:10.781Z,50.64
2019-01-09T01:56:45.631Z,50.76
2019-01-09T01:59:35.858Z,50.68
2019-01-09T02:02:26.197Z,50.58
2019-01-09T02:05:19.661Z,50.52
2019-01-09T02:08:06.115Z,50.78
2019-01-09T02:10:59.220Z,50.83
2019-01-09T02:13:33.442Z,50.72
2019-01-09T02:16:13.703Z,50.76
2019-01-09T02:19:01.052Z,50.72
2019-01-09T02:21:48.377Z,50.66
2019-01-09T02:24:31.339Z,50.56
2019-01-09T02:27:09.351Z,50.72
2019-01-09T02:29:44.966Z,50.70
2019-01-09T02:32:31.770Z,50.74
2019-01-09T02:34:59.981Z,50.73
2019-01-09T02:37:28.527Z,50.78
2019-01-09T02:39:56.725Z,50.68
2019-01-09T02:42:24.952Z,50.76
2019-01-09T02:44:53.111Z,50.60
2019-01-09T02:47:21.286Z,50.52
2019-01-09T02:49:49.863Z,50.62
2019-01-09T02:52:18.031Z,50.46
2019-01-09T02:54:47.298Z,50.50
2019-01-09T02:57:15.516Z,50.56
2019-01-09T02:59:43.644Z,50.73
2019-01-09T03:02:11.810Z,50.53
2019-01-09T03:04:39.958Z,50.50
2019-01-09T03:07:08.135Z,50.59
2019-01-09T03:09:36.354Z,50.49
2019-01-09T03:12:04.538Z,50.45
2019-01-09T03:14:32.719Z,50.52
2019-01-09T03:17:00.873Z,50.45
2019-01-09T03:19:29.042Z,50.32
2019-01-09T03:21:57.248Z,50.51
2019-01-09T03:24:25.456Z,50.39
2019-01-09T03:26:53.665Z,50.28
2019-01-09T03:29:21.825Z,50.37
2019-01-09T03:31:49.986Z,50.41
2019-01-09T03:34:18.217Z,50.29
2019-01-09T03:36:46.324Z,50.24
2019-01-09T03:39:14.554Z,50.36
2019-01-09T03:41:42.829Z,50.49
2019-01-09T03:44:11.016Z,50.53
2019-01-09T03:46:39.214Z,50.42
2019-01-09T03:49:07.392Z,50.33
2019-01-09T03:51:35.581Z,50.29
2019-01-09T03:54:03.862Z,50.29
2019-01-09T03:56:31.975Z,50.30
2019-01-09T03:59:00.166Z,50.32
2019-01-09T04:01:28.373Z,50.41
2019-01-09T04:03:56.598Z,50.41
2019-01-09T04:06:24.773Z,50.42
2019-01-09T04:08:52.961Z,50.32
2019-01-09T04:11:21.126Z,50.28
2019-01-09T04:13:49.306Z,50.35
2019-01-09T04:16:17.530Z,50.39
2019-01-09T04:18:45.785Z,50.22
2019-01-09T04:21:13.974Z,50.19
2019-01-09T04:23:42.168Z,50.15
2019-01-09T04:26:10.450Z,50.34
2019-01-09T04:28:38.676Z,50.20
2019-01-09T04:31:06.950Z,50.21
2019-01-09T04:33:35.211Z,50.22
2019-01-09T04:36:03.357Z,50.39
2019-01-09T04:38:31.514Z,50.29
2019-01-09T04:40:59.687Z,50.21
2019-01-09T04:43:27.920Z,50.19
2019-01-09T04:45:56.093Z,50.12
2019-01-09T04:48:24.323Z,50.29
2019-01-09T04:50:52.653Z,50.08
2019-01-09T04:53:20.828Z,50.27
2019-01-09T04:55:48.976Z,50.19
2019-01-09T04:58:17.162Z,49.99
2019-01-09T05:00:45.373Z,50.21
2019-01-09T05:03:13.570Z,50.12
2019-01-09T05:05:41.759Z,50.09
2019-01-09T05:08:09.938Z,50.11
2019-01-09T05:10:38.129Z,50.03
2019-01-09T05:13:06.323Z,50.11
2019-01-09T05:15:34.509Z,50.10
2019-01-09T05:18:02.795Z,50.17
2019-01-09T05:20:30.981Z,50.22
2019-01-09T05:22:59.369Z,50.09
2019-01-09T05:25:27.543Z,49.95
2019-01-09T05:27:55.750Z,50.08
2019-01-09T05:30:23.927Z,49.89
2019-01-09T05:32:52.044Z,49.94
2019-01-09T05:35:20.231Z,49.91
2019-01-09T05:37:48.421Z,50.03
2019-01-09T05:40:16.579Z,50.06
2019-01-09T05:42:47.076Z,50.08
2019-01-09T05:45:15.230Z,50.11
2019-01-09T05:47:43.390Z,50.11
2019-01-09T05:50:11.581Z,49.91
2019-01-09T05:52:39.823Z,50.04
2019-01-09T05:55:08.017Z,50.05
2019-01-09T05:57:36.210Z,50.01
2019-01-09T06:00:04.856Z,49.94
2019-01-09T06:02:33.074Z,49.96
2019-01-09T06:05:01.303Z,49.85
2019-01-09T06:07:29.523Z,49.81
2019-01-09T06:09:57.729Z,49.83
2019-01-09T06:12:25.878Z,50.02
2019-01-09T06:14:54.007Z,49.98
2019-01-09T06:17:22.218Z,49.83
2019-01-09T06:19:50.421Z,49.72
2019-01-09T06:22:18.625Z,49.80
2019-01-09T06:24:46.798Z,49.79
2019-01-09T06:27:14.990Z,49.73
2019-01-09T06:29:43.222Z,49.82
2019-01-09T06:32:11.451Z,49.68
2019-01-09T06:34:39.695Z,49.76
2019-01-09T06:37:07.879Z,49.68
2019-01-09T06:39:36.046Z,49.65
2019-01-09T06:42:04.237Z,49.74
2019-01-09T06:44:32.455Z,49.80
2019-01-09T06:47:00.606Z,49.67
2019-01-09T06:49:28.786Z,49.67
2019-01-09T06:51:56.969Z,49.75
2019-01-09T06:54:25.144Z,49.77
2019-01-09T06:56:53.284Z,49.73
2019-01-09T06:59:21.530Z,49.68
2019-01-09T07:01:49.751Z,49.61
2019-01-09T07:04:17.871Z,49.79
2019-01-09T07:06:46.013Z,49.55
2019-01-09T07:09:14.197Z,49.73
2019-01-09T07:11:42.393Z,49.67
2019-01-09T07:14:10.553Z,49.70
2019-01-09T07:16:38.738Z,49.73
2019-01-09T07:19:07.071Z,49.80
2019-01-09T07:21:35.147Z,49.78
2019-01-09T07:24:03.266Z,49.75
2019-01-09T07:26:31.391Z,49.90
2019-01-09T07:28:59.545Z,49.79
2019-01-09T07:31:27.674Z,49.84
2019-01-09T07:33:55.787Z,49.67
2019-01-09T07:36:23.970Z,49.72
2019-01-09T07:38:52.105Z,49.58
2019-01-09T07:41:20.229Z,49.58
2019-01-09T07:43:48.365Z,49.51
2019-01-09T07:46:16.494Z,49.35
2019-01-09T07:48:44.657Z,49.26
2019-01-09T07:51:12.773Z,49.32
2019-01-09T07:53:40.914Z,49.27
2019-01-09T07:56:09.069Z,49.27
2019-01-09T07:58:37.190Z,49.31
2019-01-09T08:01:05.397Z,48.98
2019-01-09T08:03:33.526Z,48.93
2019-01-09T08:06:01.645Z,48.92
2019-01-09T08:08:29.770Z,49.01
2019-01-09T08:10:57.893Z,49.00
2019-01-09T08:13:26.050Z,48.87
2019-01-09T08:15:54.165Z,49.08
2019-01-09T08:18:22.302Z,48.65
2019-01-09T08:20:50.426Z,48.82
2019-01-09T08:23:18.566Z,48.69
2019-01-09T08:25:46.715Z,48.56
2019-01-09T08:28:14.843Z,48.40
2019-01-09T08:30:42.975Z,48.41
2019-01-09T08:33:11.097Z,48.15
2019-01-09T08:35:39.249Z,48.14
2019-01-09T08:38:07.393Z,48.08
2019-01-09T08:40:37.061Z,48.25
2019-01-09T08:43:05.177Z,48.04
2019-01-09T08:45:33.429Z,48.32
2019-01-09T08:48:01.689Z,48.35
2019-01-09T08:50:29.830Z,48.05
2019-01-09T08:52:57.945Z,48.13
2019-01-09T08:55:26.262Z,48.04
2019-01-09T08:57:54.377Z,47.86
2019-01-09T09:00:22.502Z,48.04
2019-01-09T09:02:50.666Z,47.84
2019-01-09T09:05:18.905Z,47.91
2019-01-09T09:07:47.389Z,47.93
2019-01-09T09:10:16.997Z,47.80
2019-01-09T09:12:45.358Z,47.82
2019-01-09T09:15:14.228Z,48.04
2019-01-09T09:17:42.317Z,48.11
2019-01-09T09:20:10.785Z,48.17
2019-01-09T09:22:39.014Z,47.97
2019-01-09T09:25:07.341Z,48.02
2019-01-09T09:27:35.482Z,48.00
2019-01-09T09:30:03.701Z,48.00
2019-01-09T09:32:31.872Z,48.03
2019-01-09T09:34:59.989Z,48.10
2019-01-09T09:37:28.271Z,47.88
2019-01-09T09:39:56.400Z,48.04
2019-01-09T09:42:24.614Z,48.01
2019-01-09T09:44:52.753Z,47.90
2019-01-09T09:47:20.884Z,47.86
2019-01-09T09:49:49.006Z,47.91
2019-01-09T09:52:17.116Z,48.06
2019-01-09T09:54:45.580Z,48.12
2019-01-09T09:57:13.757Z,48.04
2019-01-09T09:59:43.615Z,48.02
2019-01-09T10:02:11.769Z,48.10
2019-01-09T10:04:39.927Z,48.12
2019-01-09T10:07:08.075Z,48.02
2019-01-09T10:09:36.277Z,48.12
2019-01-09T10:12:04.477Z,48.12
2019-01-09T10:14:32.660Z,48.12
2019-01-09T10:17:00.844Z,48.23
2019-01-09T10:19:29.002Z,48.02
2019-01-09T10:21:57.153Z,48.02
2019-01-09T10:24:25.365Z,48.10
2019-01-09T10:26:54.220Z,48.13
2019-01-09T10:29:22.492Z,48.01
2019-01-09T10:31:50.751Z,48.27
2019-01-09T10:34:18.952Z,48.13
2019-01-09T10:36:47.130Z,47.97
2019-01-09T10:39:15.323Z,47.81
2019-01-09T10:41:43.466Z,47.77
2019-01-09T10:44:18.798Z,47.71
2019-01-09T10:46:41.401Z,47.81
2019-01-09T10:49:09.558Z,48.06
2019-01-09T10:51:37.769Z,48.05
2019-01-09T10:54:05.951Z,48.09
2019-01-09T10:56:34.109Z,47.98
2019-01-09T10:59:02.249Z,48.13
2019-01-09T11:01:30.389Z,48.07
2019-01-09T11:03:58.562Z,48.08
2019-01-09T11:06:26.750Z,48.17
2019-01-09T11:08:54.880Z,48.11
2019-01-09T11:11:23.051Z,48.04
2019-01-09T11:13:51.169Z,48.12
2019-01-09T11:16:19.342Z,47.94
2019-01-09T11:18:47.505Z,48.06
2019-01-09T11:21:15.678Z,48.16
2019-01-09T11:23:43.857Z,48.12
2019-01-09T11:26:12.039Z,47.97
2019-01-09T11:28:40.209Z,47.88
2019-01-09T11:31:08.386Z,48.00
2019-01-09T11:33:36.517Z,47.71
2019-01-09T11:36:04.850Z,47.80
2019-01-09T11:38:33.007Z,47.70
2019-01-09T11:41:01.176Z,47.67
2019-01-09T11:43:29.325Z,46.41
2019-01-09T11:45:57.506Z,46.72
2019-01-09T11:48:25.741Z,46.97
2019-01-09T11:50:54.019Z,47.40
2019-01-09T11:53:22.182Z,47.47
2019-01-09T11:55:50.347Z,47.58
2019-01-09T11:58:18.518Z,47.64
2019-01-09T12:00:46.719Z,47.60
2019-01-09T12:03:14.898Z,47.75
2019-01-09T12:05:43.023Z,47.75
2019-01-09T12:08:11.380Z,47.71
2019-01-09T12:10:39.542Z,47.63
2019-01-09T12:13:07.744Z,47.68
2019-01-09T12:15:35.879Z,47.60
2019-01-09T12:18:04.108Z,47.60
2019-01-09T12:20:32.302Z,47.42
2019-01-09T12:23:00.485Z,47.46
2019-01-09T12:25:28.674Z,47.56
2019-01-09T12:27:56.837Z,47.45
2019-01-09T12:30:25.990Z,47.39
2019-01-09T12:32:54.178Z,47.47
2019-01-09T12:35:23.473Z,47.39
2019-01-09T12:37:51.690Z,47.18
2019-01-09T12:40:19.819Z,47.39
2019-01-09T12:42:47.977Z,47.43
2019-01-09T12:45:16.271Z,47.25
2019-01-09T12:47:44.577Z,47.47
2019-01-09T12:50:14.294Z,47.48
2019-01-09T12:52:42.681Z,47.53
2019-01-09T12:55:11.018Z,47.46
2019-01-09T12:57:39.399Z,47.33
2019-01-09T13:00:10.428Z,47.50
2019-01-09T13:02:38.670Z,47.31
2019-01-09T13:05:07.152Z,47.39
2019-01-09T13:07:35.719Z,47.50
2019-01-09T13:10:04.289Z,47.55
2019-01-09T13:12:32.607Z,47.63
2019-01-09T13:15:00.930Z,47.57
2019-01-09T13:17:29.206Z,47.64
2019-01-09T13:19:57.669Z,47.60
2019-01-09T13:22:25.960Z,47.50
2019-01-09T13:24:54.258Z,47.62
2019-01-09T13:27:22.559Z,47.68
2019-01-09T13:29:50.850Z,47.59
2019-01-09T13:32:19.053Z,47.85
2019-01-09T13:34:47.366Z,47.95
2019-01-09T13:37:15.773Z,47.98
2019-01-09T13:39:44.071Z,48.01
2019-01-09T13:42:12.242Z,47.83
2019-01-09T13:44:40.461Z,47.85
2019-01-09T13:47:08.880Z,47.89
2019-01-09T13:49:37.161Z,48.08
2019-01-09T13:52:05.488Z,48.05
2019-01-09T13:54:33.735Z,47.96
2019-01-09T13:57:01.964Z,47.84
2019-01-09T13:59:30.227Z,47.79
2019-01-09T14:01:58.367Z,47.91
2019-01-09T14:04:26.703Z,47.91
2019-01-09T14:06:55.030Z,48.02
2019-01-09T14:09:23.353Z,47.98
2019-01-09T14:11:51.713Z,47.97
2019-01-09T14:14:20.012Z,48.04
2019-01-09T14:16:48.259Z,48.00
2019-01-09T14:19:16.556Z,48.12
2019-01-09T14:21:44.749Z,48.12
2019-01-09T14:24:12.965Z,48.26
2019-01-09T14:26:41.173Z,48.36
2019-01-09T14:29:09.455Z,48.32
2019-01-09T14:31:37.709Z,48.34
2019-01-09T14:34:05.968Z,48.43
2019-01-09T14:36:34.213Z,48.33
2019-01-09T14:39:02.422Z,48.41
2019-01-09T14:41:30.718Z,48.27
2019-01-09T14:43:59.095Z,48.37
2019-01-09T14:46:27.342Z,48.38
2019-01-09T14:48:55.525Z,48.31
2019-01-09T14:51:23.738Z,48.27
2019-01-09T14:53:52.006Z,48.18
2019-01-09T14:56:20.284Z,48.37
2019-01-09T14:58:48.509Z,48.11
2019-01-09T15:01:16.726Z,48.26
2019-01-09T15:03:45.031Z,48.43
2019-01-09T15:06:13.327Z,48.48
2019-01-09T15:08:41.583Z,48.41
2019-01-09T15:11:09.841Z,48.24
2019-01-09T15:13:38.052Z,48.28
2019-01-09T15:16:06.304Z,48.37
2019-01-09T15:18:34.569Z,48.33
2019-01-09T15:21:02.779Z,48.25
2019-01-09T15:23:31.070Z,48.10
2019-01-09T15:25:59.266Z,48.17
2019-01-09T15:28:27.471Z,48.16
2019-01-09T15:30:55.713Z,48.10
2019-01-09T15:33:23.950Z,48.18
2019-01-09T15:35:52.198Z,48.08
2019-01-09T15:38:20.571Z,48.24
2019-01-09T15:40:48.790Z,48.22
2019-01-09T15:43:17.167Z,48.21
2019-01-09T15:45:45.397Z,48.17
2019-01-09T15:48:13.663Z,48.09
2019-01-09T15:50:41.894Z,48.16
2019-01-09T15:53:10.129Z,47.95
2019-01-09T15:55:38.355Z,48.12
2019-01-09T15:58:06.587Z,48.02
2019-01-09T16:00:42.348Z,48.09
2019-01-09T16:03:10.560Z,48.02
2019-01-09T16:05:39.019Z,48.07
2019-01-09T16:08:07.781Z,48.18
2019-01-09T16:10:36.172Z,48.24
2019-01-09T16:13:04.371Z,48.14
2019-01-09T16:15:32.594Z,48.13
2019-01-09T16:18:00.817Z,47.91
2019-01-09T16:20:29.179Z,48.03
2019-01-09T16:22:57.421Z,48.19
2019-01-09T16:25:25.971Z,48.15
2019-01-09T16:27:54.192Z,47.96
2019-01-09T16:30:33.889Z,47.91
2019-01-09T16:32:57.486Z,48.16
2019-01-09T16:35:28.248Z,48.05
2019-01-09T16:37:56.491Z,48.26
2019-01-09T16:40:24.672Z,48.13
2019-01-09T16:42:52.899Z,48.28
2019-01-09T16:45:21.149Z,48.15
2019-01-09T16:47:49.367Z,48.40
2019-01-09T16:50:18.064Z,48.30
2019-01-09T16:52:46.307Z,48.37
2019-01-09T16:55:14.575Z,48.31
2019-01-09T16:57:43.014Z,48.29
2019-01-09T17:00:13.887Z,48.35
2019-01-09T17:02:42.135Z,48.47
2019-01-09T17:05:10.306Z,48.45
2019-01-09T17:07:38.445Z,48.29
2019-01-09T17:10:06.777Z,48.30
2019-01-09T17:12:34.987Z,48.35
2019-01-09T17:15:03.121Z,48.27
2019-01-09T17:17:31.229Z,48.33
2019-01-09T17:19:59.406Z,48.35
2019-01-09T17:22:27.595Z,48.25
2019-01-09T17:24:55.690Z,48.36
2019-01-09T17:27:23.810Z,48.36
2019-01-09T17:29:51.978Z,48.35
2019-01-09T17:32:21.766Z,48.28
2019-01-09T17:34:49.985Z,48.45
2019-01-09T17:37:18.223Z,48.30
2019-01-09T17:39:46.421Z,48.36
2019-01-09T17:42:14.688Z,48.47
2019-01-09T17:44:42.894Z,48.22
2019-01-09T17:47:11.023Z,48.22
2019-01-09T17:49:39.165Z,48.29
2019-01-09T17:52:07.529Z,48.37
2019-01-09T17:54:35.676Z,48.55
2019-01-09T17:57:03.847Z,48.32
2019-01-09T17:59:32.752Z,48.39
2019-01-09T18:02:01.002Z,48.31
2019-01-09T18:04:29.170Z,48.28
2019-01-09T18:06:57.634Z,48.37
2019-01-09T18:09:25.837Z,48.42
2019-01-09T18:11:54.056Z,48.46
2019-01-09T18:14:22.308Z,48.39
2019-01-09T18:16:50.606Z,48.36
2019-01-09T18:19:18.849Z,48.55
2019-01-09T18:21:47.110Z,48.46
2019-01-09T18:24:15.312Z,48.49
2019-01-09T18:26:43.506Z,48.36
2019-01-09T18:29:11.815Z,48.47
2019-01-09T18:32:05.257Z,48.35
2019-01-09T18:34:38.349Z,48.41
2019-01-09T18:37:31.800Z,48.25
2019-01-09T18:40:34.321Z,48.48
2019-01-09T18:43:04.921Z,48.44
2019-01-09T18:45:42.623Z,48.42
2019-01-09T18:48:20.189Z,48.36
2019-01-09T18:51:07.522Z,48.42
2019-01-09T18:53:40.230Z,48.39
2019-01-09T18:56:09.504Z,48.28
2019-01-09T18:58:37.759Z,48.30
2019-01-09T19:01:07.824Z,48.32
2019-01-09T19:03:35.917Z,48.28
2019-01-09T19:06:04.470Z,48.46
2019-01-09T19:08:32.680Z,48.43
2019-01-09T19:11:07.708Z,48.41
2019-01-09T19:13:30.893Z,48.40
2019-01-09T19:15:59.131Z,48.29
2019-01-09T19:18:27.436Z,48.47
2019-01-09T19:20:55.692Z,48.42
2019-01-09T19:23:23.960Z,48.50
2019-01-09T19:25:52.201Z,48.46
2019-01-09T19:28:20.451Z,48.47
2019-01-09T19:30:48.735Z,48.36
2019-01-09T19:33:17.008Z,48.36
2019-01-09T19:35:45.403Z,48.39
2019-01-09T19:38:13.672Z,48.40
2019-01-09T19:40:41.892Z,48.34
2019-01-09T19:43:10.126Z,48.25
2019-01-09T19:45:38.342Z,48.26
2019-01-09T19:48:06.659Z,48.31
2019-01-09T19:50:42.503Z,48.39
2019-01-09T19:53:04.781Z,48.26
2019-01-09T19:55:33.004Z,48.37
2019-01-09T19:58:01.237Z,48.33
2019-01-09T20:00:29.588Z,48.51
2019-01-09T20:02:57.790Z,48.49
2019-01-09T20:05:26.059Z,48.44
2019-01-09T20:07:54.449Z,48.38
2019-01-09T20:10:25.385Z,48.58
2019-01-09T20:12:53.651Z,48.42
2019-01-09T20:15:22.016Z,48.34
2019-01-09T20:17:50.365Z,48.38
2019-01-09T20:20:18.908Z,48.43
2019-01-09T20:22:47.302Z,48.44
2019-01-09T20:25:15.636Z,48.28
2019-01-09T20:27:44.008Z,48.40
2019-01-09T20:30:14.267Z,48.42
2019-01-09T20:32:42.544Z,48.51
2019-01-09T20:35:10.926Z,48.42
2019-01-09T20:37:39.276Z,48.38
2019-01-09T20:40:08.466Z,48.51
2019-01-09T20:42:36.738Z,48.37
2019-01-09T20:45:05.247Z,48.32
2019-01-09T20:47:33.583Z,48.43
2019-01-09T20:50:01.907Z,48.32
2019-01-09T20:52:30.153Z,48.43
2019-01-09T20:54:58.458Z,48.36
2019-01-09T20:57:26.758Z,48.44
2019-01-09T20:59:55.026Z,48.40
2019-01-09T21:02:23.332Z,48.49
2019-01-09T21:04:51.563Z,48.42
2019-01-09T21:07:19.906Z,48.26
2019-01-09T21:09:48.147Z,48.22
2019-01-09T21:12:16.376Z,48.19
2019-01-09T21:14:44.633Z,48.06
2019-01-09T21:17:12.954Z,48.10
2019-01-09T21:19:41.155Z,48.03
2019-01-09T21:22:09.423Z,47.98
2019-01-09T21:24:37.690Z,48.02
2019-01-09T21:27:06.002Z,47.97
2019-01-09T21:29:35.265Z,47.83
2019-01-09T21:32:03.513Z,47.99
2019-01-09T21:34:31.775Z,47.97
2019-01-09T21:37:00.826Z,47.95
2019-01-09T21:39:29.132Z,47.83
2019-01-09T21:41:57.357Z,48.08
2019-01-09T21:44:25.649Z,47.84
2019-01-09T21:46:53.890Z,47.89
2019-01-09T21:49:22.166Z,47.94
2019-01-09T21:51:50.449Z,47.99
2019-01-09T21:54:18.704Z,48.11
2019-01-09T21:56:47.064Z,48.12
2019-01-09T21:59:15.308Z,48.16
2019-01-09T22:01:43.502Z,48.29
2019-01-09T22:04:13.759Z,47.98
2019-01-09T22:06:42.036Z,48.08
2019-01-09T22:09:10.374Z,48.09
2019-01-09T22:11:38.619Z,48.12
2019-01-09T22:14:06.885Z,48.32
2019-01-09T22:16:35.137Z,48.47
2019-01-09T22:19:11.715Z,48.57
2019-01-09T22:21:33.334Z,48.55
2019-01-09T22:24:01.689Z,48.62
2019-01-09T22:26:29.985Z,48.75
2019-01-09T22:28:58.287Z,48.60
2019-01-09T22:31:27.062Z,48.72
2019-01-09T22:33:55.714Z,48.89
2019-01-09T22:36:24.057Z,48.71
2019-01-09T22:38:52.429Z,48.91
2019-01-09T22:41:20.753Z,48.83
2019-01-09T22:43:49.109Z,49.03
2019-01-09T22:46:17.566Z,49.00
2019-01-09T22:48:46.341Z,49.02
2019-01-09T22:51:15.094Z,48.93
2019-01-09T22:53:43.584Z,48.91
2019-01-09T22:56:12.174Z,48.94
2019-01-09T22:58:40.442Z,48.91
2019-01-09T23:01:16.735Z,48.91
2019-01-09T23:03:45.303Z,48.98
2019-01-09T23:06:13.773Z,48.84
2019-01-09T23:08:42.358Z,48.77
2019-01-09T23:11:10.718Z,48.80
2019-01-09T23:13:39.416Z,48.96
2019-01-09T23:16:07.650Z,48.90
2019-01-09T23:18:35.985Z,49.21
2019-01-09T23:21:04.194Z,48.85
2019-01-09T23:23:32.450Z,48.94
2019-01-09T23:26:00.820Z,48.97
2019-01-09T23:28:29.093Z,48.89
2019-01-09T23:30:57.419Z,48.92
2019-01-09T23:33:25.677Z,48.87
2019-01-09T23:35:53.975Z,49.05
2019-01-09T23:38:22.223Z,49.21
2019-01-09T23:40:50.471Z,49.21
2019-01-09T23:43:18.636Z,49.02
2019-01-09T23:45:47.253Z,49.28
2019-01-09T23:48:15.577Z,49.60
2019-01-09T23:50:43.779Z,49.48
2019-01-09T23:53:12.026Z,49.24
2019-01-09T23:55:40.245Z,49.29
2019-01-09T23:58:08.468Z,49.48
